createdAt,value
2018-03-22T16:54:35.092Z,974.8
2018-03-22T16:55:37.823Z,974.7
2018-03-22T16:56:40.479Z,974.7
2018-03-22T16:57:43.497Z,974.7
2018-03-22T16:58:46.291Z,974.7
2018-03-22T16:59:49.080Z,974.7
2018-03-22T17:00:51.640Z,974.7
2018-03-22T17:01:54.488Z,974.7
2018-03-22T17:02:58.686Z,974.7
2018-03-22T17:04:01.587Z,974.7
2018-03-22T17:05:04.396Z,974.7
2018-03-22T17:06:07.451Z,974.7
2018-03-22T17:07:10.081Z,974.7
2018-03-22T17:08:13.067Z,974.7
2018-03-22T17:09:15.862Z,974.7
2018-03-22T17:10:18.771Z,974.7
2018-03-22T17:11:24.301Z,974.8
2018-03-22T17:12:27.068Z,974.8
2018-03-22T17:13:29.795Z,974.8
2018-03-22T17:14:33.587Z,974.8
2018-03-22T17:15:36.482Z,974.8
2018-03-22T17:16:39.948Z,974.8
2018-03-22T17:17:42.906Z,974.7
2018-03-22T17:18:45.796Z,974.8
2018-03-22T17:19:50.877Z,974.7
2018-03-22T17:20:53.797Z,974.8
2018-03-22T17:21:56.488Z,974.8
2018-03-22T17:22:59.170Z,974.8
2018-03-22T17:24:01.968Z,974.8
2018-03-22T17:25:05.278Z,974.8
2018-03-22T17:26:07.915Z,974.8
2018-03-22T17:27:10.740Z,974.7
2018-03-22T17:28:13.382Z,974.8
2018-03-22T17:29:16.164Z,974.7
2018-03-22T17:30:18.889Z,974.7
2018-03-22T17:31:22.194Z,974.7
2018-03-22T17:32:25.087Z,974.7
2018-03-22T17:33:27.907Z,974.8
2018-03-22T17:34:30.487Z,974.7
2018-03-22T17:35:33.064Z,974.7
2018-03-22T17:36:35.729Z,974.8
2018-03-22T17:37:38.263Z,974.7
2018-03-22T17:38:41.678Z,974.8
2018-03-22T17:39:44.704Z,974.8
2018-03-22T17:40:47.592Z,974.8
2018-03-22T17:41:54.092Z,974.8
2018-03-22T17:42:56.978Z,974.9
2018-03-22T17:43:59.680Z,974.9
2018-03-22T17:45:02.509Z,974.8
2018-03-22T17:46:05.132Z,974.8
2018-03-22T17:47:07.782Z,974.8
2018-03-22T17:48:10.306Z,974.8
2018-03-22T17:49:13.022Z,974.8
2018-03-22T17:50:15.720Z,974.8
2018-03-22T17:51:19.338Z,974.9
2018-03-22T17:52:32.728Z,974.9
2018-03-22T17:53:35.502Z,974.9
2018-03-22T17:54:38.241Z,974.8
2018-03-22T17:55:41.002Z,974.9
2018-03-22T17:56:43.846Z,974.8
2018-03-22T17:57:54.754Z,974.8
2018-03-22T17:58:57.381Z,974.8
2018-03-22T18:00:00.394Z,974.7
2018-03-22T18:01:03.170Z,974.9
2018-03-22T18:02:06.262Z,974.7
2018-03-22T18:03:08.874Z,974.9
2018-03-22T18:04:11.416Z,974.8
2018-03-22T18:05:14.416Z,974.8
2018-03-22T18:06:17.196Z,974.9
2018-03-22T18:07:19.984Z,974.9
2018-03-22T18:08:23.928Z,974.9
2018-03-22T18:09:26.675Z,974.8
2018-03-22T18:10:29.243Z,974.9
2018-03-22T18:11:32.173Z,974.9
2018-03-22T18:12:35.069Z,974.9
2018-03-22T18:13:37.647Z,975
2018-03-22T18:14:40.289Z,975
2018-03-22T18:15:43.015Z,974.9
2018-03-22T18:16:45.648Z,975
2018-03-22T18:17:48.952Z,975
2018-03-22T18:18:51.581Z,975
2018-03-22T18:19:54.458Z,975
2018-03-22T18:20:57.146Z,975
2018-03-22T18:21:59.695Z,975.1
2018-03-22T18:23:02.312Z,975.1
2018-03-22T18:24:09.375Z,975.1
2018-03-22T18:25:11.992Z,975.1
2018-03-22T18:26:14.622Z,975.2
2018-03-22T18:27:17.234Z,975.2
2018-03-22T18:28:19.787Z,975
2018-03-22T18:29:22.542Z,975.2
2018-03-22T18:30:25.146Z,975.2
2018-03-22T18:31:27.752Z,975.2
2018-03-22T18:32:32.224Z,975.2
2018-03-22T18:33:34.868Z,975.2
2018-03-22T18:34:37.517Z,975.2
2018-03-22T18:35:40.053Z,975.1
2018-03-22T18:36:42.764Z,975.1
2018-03-22T18:37:45.376Z,975.2
2018-03-22T18:38:47.956Z,975.1
2018-03-22T18:39:50.585Z,975.1
2018-03-22T18:40:53.319Z,975.1
2018-03-22T18:41:55.995Z,975.1
2018-03-22T18:42:58.703Z,974.9
2018-03-22T18:44:01.409Z,975.1
2018-03-22T18:45:04.066Z,975
2018-03-22T18:46:06.755Z,975.1
2018-03-22T18:47:09.426Z,975.1
2018-03-22T18:48:12.056Z,975
2018-03-22T18:49:15.812Z,975.1
2018-03-22T18:50:27.159Z,975.1
2018-03-22T18:51:29.738Z,975
2018-03-22T18:52:32.296Z,975
2018-03-22T18:53:35.052Z,975
2018-03-22T18:54:37.669Z,975
2018-03-22T18:55:40.372Z,975
2018-03-22T18:56:43.174Z,974.9
2018-03-22T18:57:45.988Z,975
2018-03-22T18:58:48.722Z,975
2018-03-22T18:59:51.499Z,975
2018-03-22T19:00:54.256Z,974.9
2018-03-22T19:01:57.061Z,974.9
2018-03-22T19:02:59.843Z,974.9
2018-03-22T19:04:02.646Z,975
2018-03-22T19:05:05.370Z,974.9
2018-03-22T19:06:07.972Z,975
2018-03-22T19:07:10.648Z,974.9
2018-03-22T19:08:13.425Z,974.9
2018-03-22T19:09:16.100Z,975
2018-03-22T19:10:18.987Z,975
2018-03-22T19:11:21.778Z,975
2018-03-22T19:12:24.696Z,975
2018-03-22T19:13:27.496Z,975
2018-03-22T19:14:37.002Z,975
2018-03-22T19:15:39.681Z,975
2018-03-22T19:16:42.283Z,975
2018-03-22T19:17:45.179Z,974.9
2018-03-22T19:18:47.835Z,974.9
2018-03-22T19:19:50.543Z,974.9
2018-03-22T19:20:53.154Z,975
2018-03-22T19:22:02.537Z,975
2018-03-22T19:23:05.462Z,974.9
2018-03-22T19:24:08.046Z,975
2018-03-22T19:25:10.721Z,975
2018-03-22T19:26:13.369Z,974.9
2018-03-22T19:27:16.179Z,974.8
2018-03-22T19:28:18.741Z,974.9
2018-03-22T19:29:21.339Z,974.8
2018-03-22T19:30:24.232Z,974.8
2018-03-22T19:31:26.821Z,974.9
2018-03-22T19:32:29.515Z,974.9
2018-03-22T19:33:32.260Z,974.9
2018-03-22T19:34:34.948Z,974.9
2018-03-22T19:35:37.644Z,974.9
2018-03-22T19:36:40.264Z,974.9
2018-03-22T19:37:42.875Z,974.8
2018-03-22T19:38:45.497Z,974.9
2018-03-22T19:39:48.198Z,975
2018-03-22T19:40:50.733Z,974.9
2018-03-22T19:41:53.522Z,974.8
2018-03-22T19:42:58.016Z,974.9
2018-03-22T19:44:00.648Z,974.8
2018-03-22T19:45:03.556Z,975
2018-03-22T19:46:06.192Z,974.9
2018-03-22T19:47:08.833Z,975
2018-03-22T19:48:13.220Z,975
2018-03-22T19:49:15.910Z,974.9
2018-03-22T19:50:18.537Z,975
2018-03-22T19:51:21.116Z,975
2018-03-22T19:52:23.785Z,975
2018-03-22T19:53:26.466Z,975
2018-03-22T19:54:29.108Z,975
2018-03-22T19:55:31.787Z,975
2018-03-22T19:56:34.590Z,974.9
2018-03-22T19:57:37.300Z,974.8
2018-03-22T19:58:40.294Z,974.9
2018-03-22T19:59:42.937Z,974.9
2018-03-22T20:00:45.646Z,974.9
2018-03-22T20:01:48.312Z,974.9
2018-03-22T20:02:51.068Z,974.9
2018-03-22T20:03:53.800Z,974.8
2018-03-22T20:04:56.388Z,974.9
2018-03-22T20:05:59.090Z,975
2018-03-22T20:07:01.737Z,974.9
2018-03-22T20:08:04.388Z,974.9
2018-03-22T20:09:07.306Z,974.9
2018-03-22T20:10:09.965Z,974.9
2018-03-22T20:11:12.645Z,974.9
2018-03-22T20:12:15.336Z,974.9
2018-03-22T20:13:18.043Z,974.9
2018-03-22T20:14:20.866Z,974.9
2018-03-22T20:15:23.939Z,974.9
2018-03-22T20:16:28.368Z,974.8
2018-03-22T20:17:31.048Z,974.8
2018-03-22T20:18:33.759Z,974.8
2018-03-22T20:19:36.515Z,974.9
2018-03-22T20:20:39.181Z,974.9
2018-03-22T20:21:41.742Z,974.9
2018-03-22T20:22:44.409Z,974.9
2018-03-22T20:23:47.071Z,974.9
2018-03-22T20:24:49.594Z,974.7
2018-03-22T20:25:52.140Z,974.9
2018-03-22T20:26:54.802Z,974.9
2018-03-22T20:27:57.369Z,974.8
2018-03-22T20:29:00.015Z,974.8
2018-03-22T20:30:02.833Z,974.9
2018-03-22T20:31:05.531Z,974.9
2018-03-22T20:32:08.100Z,974.8
2018-03-22T20:33:10.771Z,974.9
2018-03-22T20:34:13.580Z,974.8
2018-03-22T20:35:16.274Z,974.9
2018-03-22T20:36:18.869Z,974.9
2018-03-22T20:37:21.595Z,974.9
2018-03-22T20:38:24.290Z,974.9
2018-03-22T20:39:26.896Z,974.9
2018-03-22T20:40:29.523Z,974.9
2018-03-22T20:41:32.087Z,974.9
2018-03-22T20:42:34.749Z,974.9
2018-03-22T20:43:37.342Z,974.8
2018-03-22T20:44:39.862Z,974.9
2018-03-22T20:45:42.440Z,974.9
2018-03-22T20:46:45.117Z,974.8
2018-03-22T20:47:47.758Z,974.9
2018-03-22T20:48:50.362Z,974.7
2018-03-22T20:49:53.067Z,974.8
2018-03-22T20:50:55.873Z,974.9
2018-03-22T20:51:58.473Z,974.9
2018-03-22T20:53:01.081Z,974.8
2018-03-22T20:54:03.641Z,974.9
2018-03-22T20:55:06.200Z,974.7
2018-03-22T20:56:08.807Z,974.8
2018-03-22T20:57:11.346Z,974.8
2018-03-22T20:58:14.059Z,974.9
2018-03-22T20:59:16.793Z,974.8
2018-03-22T21:00:19.441Z,974.9
2018-03-22T21:01:21.992Z,974.8
2018-03-22T21:02:24.661Z,974.8
2018-03-22T21:03:27.286Z,974.8
2018-03-22T21:04:29.945Z,974.8
2018-03-22T21:05:32.459Z,974.8
2018-03-22T21:06:35.096Z,974.7
2018-03-22T21:07:37.611Z,974.8
2018-03-22T21:08:40.155Z,974.7
2018-03-22T21:09:42.801Z,974.7
2018-03-22T21:10:45.465Z,974.7
2018-03-22T21:11:48.032Z,974.7
2018-03-22T21:12:50.694Z,974.6
2018-03-22T21:13:53.287Z,974.6
2018-03-22T21:14:55.919Z,974.6
2018-03-22T21:15:58.527Z,974.6
2018-03-22T21:17:07.096Z,974.4
2018-03-22T21:18:09.575Z,974.5
2018-03-22T21:19:12.102Z,974.6
2018-03-22T21:20:14.967Z,974.5
2018-03-22T21:21:17.599Z,974.5
2018-03-22T21:22:20.186Z,974.5
2018-03-22T21:23:22.665Z,974.5
2018-03-22T21:24:25.373Z,974.5
2018-03-22T21:25:27.851Z,974.5
2018-03-22T21:26:30.371Z,974.5
2018-03-22T21:27:32.920Z,974.5
2018-03-22T21:28:35.524Z,974.5
2018-03-22T21:29:38.033Z,974.5
2018-03-22T21:30:40.509Z,974.5
2018-03-22T21:31:42.995Z,974.5
2018-03-22T21:32:45.630Z,974.5
2018-03-22T21:33:58.745Z,974.5
2018-03-22T21:35:01.254Z,974.5
2018-03-22T21:36:03.772Z,974.4
2018-03-22T21:37:06.316Z,974.5
2018-03-22T21:38:08.891Z,974.4
2018-03-22T21:39:11.336Z,974.4
2018-03-22T21:40:13.750Z,974.4
2018-03-22T21:41:16.257Z,974.4
2018-03-22T21:42:18.712Z,974.4
2018-03-22T21:43:21.182Z,974.4
2018-03-22T21:44:23.640Z,974.4
2018-03-22T21:45:26.210Z,974.4
2018-03-22T21:46:28.715Z,974.4
2018-03-22T21:47:31.256Z,974.4
2018-03-22T21:48:33.738Z,974.4
2018-03-22T21:49:36.191Z,974.4
2018-03-22T21:50:38.615Z,974.3
2018-03-22T21:51:41.114Z,974.4
2018-03-22T21:52:43.654Z,974.4
2018-03-22T21:53:46.401Z,974.4
2018-03-22T21:54:48.967Z,974.3
2018-03-22T21:55:51.399Z,974.4
2018-03-22T21:56:53.883Z,974.3
2018-03-22T21:57:56.377Z,974.4
2018-03-22T21:59:02.041Z,974.3
2018-03-22T22:00:04.517Z,974.3
2018-03-22T22:01:07.057Z,974.4
2018-03-22T22:02:09.870Z,974.4
2018-03-22T22:03:12.350Z,974.3
2018-03-22T22:04:14.885Z,974.4
2018-03-22T22:05:17.360Z,974.3
2018-03-22T22:06:19.913Z,974.3
2018-03-22T22:07:22.447Z,974.3
2018-03-22T22:08:25.051Z,974.3
2018-03-22T22:09:27.916Z,974.3
2018-03-22T22:10:30.508Z,974.2
2018-03-22T22:11:32.977Z,974.3
2018-03-22T22:12:35.537Z,974.3
2018-03-22T22:13:37.990Z,974.3
2018-03-22T22:14:40.514Z,974.3
2018-03-22T22:15:43.117Z,974.3
2018-03-22T22:16:45.600Z,974.3
2018-03-22T22:17:48.476Z,974.3
2018-03-22T22:18:50.980Z,974
2018-03-22T22:19:53.484Z,974.3
2018-03-22T22:20:56.141Z,974.3
2018-03-22T22:21:58.764Z,974.3
2018-03-22T22:23:01.454Z,974.3
2018-03-22T22:24:03.996Z,974.2
2018-03-22T22:25:06.552Z,974.3
2018-03-22T22:26:09.354Z,974.2
2018-03-22T22:27:12.776Z,974.2
2018-03-22T22:28:15.285Z,974.2
2018-03-22T22:29:17.872Z,974.2
2018-03-22T22:30:20.301Z,974.2
2018-03-22T22:31:22.715Z,974.2
2018-03-22T22:32:25.170Z,974.2
2018-03-22T22:33:27.651Z,974.3
2018-03-22T22:34:30.144Z,974.3
2018-03-22T22:35:32.576Z,974.2
2018-03-22T22:36:35.157Z,974.2
2018-03-22T22:37:37.634Z,974.2
2018-03-22T22:38:40.105Z,974.2
2018-03-22T22:39:42.597Z,974.2
2018-03-22T22:40:45.140Z,974.2
2018-03-22T22:41:47.837Z,974.1
2018-03-22T22:42:50.224Z,974.1
2018-03-22T22:43:52.747Z,974.1
2018-03-22T22:44:55.396Z,974.2
2018-03-22T22:45:57.892Z,974.2
2018-03-22T22:47:00.335Z,974.1
2018-03-22T22:48:02.839Z,974.2
2018-03-22T22:49:05.569Z,974.1
2018-03-22T22:50:08.003Z,974.1
2018-03-22T22:51:10.459Z,974.1
2018-03-22T22:52:12.853Z,974.1
2018-03-22T22:53:15.406Z,974
2018-03-22T22:54:17.882Z,974.1
2018-03-22T22:55:20.346Z,974
2018-03-22T22:56:22.810Z,974
2018-03-22T22:57:25.366Z,974
2018-03-22T22:58:27.792Z,974
2018-03-22T22:59:30.254Z,973.9
2018-03-22T23:00:32.780Z,973.9
2018-03-22T23:01:35.330Z,974
2018-03-22T23:02:37.769Z,973.9
2018-03-22T23:03:40.231Z,973.9
2018-03-22T23:04:42.697Z,973.9
2018-03-22T23:05:45.284Z,973.9
2018-03-22T23:06:47.791Z,973.9
2018-03-22T23:07:50.351Z,973.9
2018-03-22T23:08:52.793Z,973.9
2018-03-22T23:09:55.281Z,973.9
2018-03-22T23:10:57.846Z,973.9
2018-03-22T23:12:00.512Z,973.9
2018-03-22T23:13:03.234Z,973.8
2018-03-22T23:14:06.201Z,973.8
2018-03-22T23:15:08.678Z,973.8
2018-03-22T23:16:11.190Z,973.7
2018-03-22T23:17:13.713Z,973.8
2018-03-22T23:18:16.306Z,973.8
2018-03-22T23:19:18.868Z,973.8
2018-03-22T23:20:21.392Z,973.8
2018-03-22T23:21:23.975Z,973.8
2018-03-22T23:22:26.568Z,973.7
2018-03-22T23:23:29.455Z,973.8
2018-03-22T23:24:32.009Z,973.8
2018-03-22T23:25:34.541Z,973.8
2018-03-22T23:26:36.977Z,973.8
2018-03-22T23:27:39.622Z,973.8
2018-03-22T23:28:37.288Z,973.7
2018-03-22T23:29:40.106Z,973.7
2018-03-22T23:30:42.607Z,973.8
2018-03-22T23:31:45.938Z,973.8
2018-03-22T23:32:48.536Z,973.8
2018-03-22T23:33:51.050Z,973.8
2018-03-22T23:34:53.655Z,973.9
2018-03-22T23:35:56.238Z,973.8
2018-03-22T23:36:58.782Z,973.9
2018-03-22T23:38:01.338Z,973.8
2018-03-22T23:39:04.142Z,973.9
2018-03-22T23:40:06.646Z,973.9
2018-03-22T23:41:09.531Z,973.9
2018-03-22T23:42:12.216Z,973.9
2018-03-22T23:43:14.769Z,974
2018-03-22T23:44:17.328Z,974
2018-03-22T23:45:19.817Z,974
2018-03-22T23:46:22.304Z,973.9
2018-03-22T23:47:24.963Z,974
2018-03-22T23:48:27.387Z,974
2018-03-22T23:49:29.909Z,974
2018-03-22T23:50:32.390Z,974
2018-03-22T23:51:34.994Z,974
2018-03-22T23:52:37.517Z,973.9
2018-03-22T23:53:39.964Z,973.9
2018-03-22T23:54:42.436Z,973.9
2018-03-22T23:55:44.877Z,974
2018-03-22T23:56:47.328Z,973.9
2018-03-22T23:57:49.809Z,973.9
2018-03-22T23:58:52.269Z,973.9
2018-03-22T23:59:54.712Z,973.9
